| time (UTC) | temp F | wind direction | speed knots | gust knots | rain 1hr in | rain 24hr in | rain mn in | humidity % | barometer mb |
| 20260505194741 | 72 | 49 | 0.9 | 0.9 | 0.00 | 0.00 | 0.00 | 42 | |
| 20260505194238 | 72 | 269 | 1.7 | 2.6 | 0.00 | 0.00 | 0.00 | 42 | |
| 20260505193734 | 71 | 30 | 1.7 | 3.5 | 0.00 | 0.00 | 0.00 | 43 | |
| 20260505193232 | 72 | 319 | 1.7 | 5.2 | 0.00 | 0.00 | 0.00 | 42 | |
| 20260505192730 | 72 | 299 | 3.5 | 4.3 | 0.00 | 0.00 | 0.00 | 42 | |
| 20260505192227 | 71 | 297 | 3.5 | 3.5 | 0.00 | 0.00 | 0.00 | 45 | |
| 20260505191725 | 71 | 19 | 2.6 | 4.3 | 0.00 | 0.00 | 0.00 | 44 | |
| 20260505191224 | 70 | 114 | 2.6 | 3.5 | 0.00 | 0.00 | 0.00 | 46 | |
| 20260505190719 | 70 | 103 | 1.7 | 2.6 | 0.00 | 0.00 | 0.00 | 48 | |
| 20260505190219 | 70 | 355 | 2.6 | 5.2 | 0.00 | 0.00 | 0.00 | 47 | |
| 20260505185716 | 70 | 34 | 6.1 | 7.8 | 0.00 | 0.00 | 0.00 | 46 | |
| 20260505185213 | 70 | 78 | 1.7 | 3.5 | 0.00 | 0.00 | 0.00 | 46 | |
| 20260505184708 | 71 | 340 | 0.0 | 0.9 | 0.00 | 0.00 | 0.00 | 44 | |
| 20260505184206 | 71 | 111 | 2.6 | 3.5 | 0.00 | 0.00 | 0.00 | 45 | |
| 20260505183702 | 72 | 266 | 1.7 | 3.5 | 0.00 | 0.00 | 0.00 | 43 | |
| 20260505183201 | 73 | 180 | 0.9 | 4.3 | 0.00 | 0.00 | 0.00 | 43 | |
| 20260505182656 | 72 | 212 | 0.9 | 1.7 | 0.00 | 0.00 | 0.00 | 44 | |
| 20260505182154 | 72 | 260 | 3.5 | 4.3 | 0.00 | 0.00 | 0.00 | 44 | |
| 20260505181649 | 72 | 146 | 2.6 | 10.4 | 0.00 | 0.00 | 0.00 | 44 | |
| 20260505181147 | 71 | 220 | 6.1 | 7.8 | 0.00 | 0.00 | 0.00 | 46 | |
| 20260505180643 | 70 | 226 | 8.7 | 11.3 | 0.00 | 0.00 | 0.00 | 47 | |
| 20260505180141 | 71 | 225 | 4.3 | 8.7 | 0.00 | 0.00 | 0.00 | 46 | |
| 20260505175637 | 72 | 229 | 8.7 | 11.3 | 0.00 | 0.00 | 0.00 | 45 | |
| 20260505175133 | 72 | 227 | 3.5 | 7.0 | 0.00 | 0.00 | 0.00 | 48 | |
| 20260505174630 | 72 | 233 | 7.8 | 9.6 | 0.00 | 0.00 | 0.00 | 47 | |
| 20260505174126 | 72 | 231 | 5.2 | 9.6 | 0.00 | 0.00 | 0.00 | 46 | |
| 20260505173623 | 71 | 219 | 7.8 | 9.6 | 0.00 | 0.00 | 0.00 | 47 | |
| 20260505173119 | 71 | 199 | 1.7 | 5.2 | 0.00 | 0.00 | 0.00 | 49 | |
| 20260505172618 | 71 | 225 | 6.1 | 9.6 | 0.00 | 0.00 | 0.00 | 49 | |
| 20260505172114 | 70 | 258 | 0.9 | 6.1 | 0.00 | 0.00 | 0.00 | 48 | |
| 20260505171608 | 70 | 233 | 2.6 | 7.8 | 0.00 | 0.00 | 0.00 | 50 | |
| 20260505171106 | 69 | 242 | 4.3 | 10.4 | 0.00 | 0.00 | 0.00 | 50 | |
| 20260505170603 | 68 | 263 | 1.7 | 13.0 | 0.00 | 0.00 | 0.00 | 51 | |
| 20260505170059 | 69 | 257 | 3.5 | 9.6 | 0.00 | 0.00 | 0.00 | 50 | |
| 20260505165554 | 68 | 227 | 6.1 | 8.7 | 0.00 | 0.00 | 0.00 | 52 | |
| 20260505165050 | 68 | 213 | 2.6 | 10.4 | 0.00 | 0.00 | 0.00 | 55 | |
| 20260505164546 | 69 | 290 | 5.2 | 6.1 | 0.00 | 0.00 | 0.00 | 52 | |
| 20260505164044 | 68 | 198 | 0.9 | 6.1 | 0.00 | 0.00 | 0.00 | 52 | |
| 20260505163543 | 66 | 220 | 9.6 | 13.0 | 0.00 | 0.00 | 0.00 | 54 | |
| 20260505163039 | 66 | 227 | 9.6 | 12.2 | 0.00 | 0.00 | 0.00 | 55 | |
| 20260505162538 | 66 | 247 | 7.8 | 11.3 | 0.00 | 0.00 | 0.00 | 54 | |
| 20260505162035 | 66 | 236 | 4.3 | 11.3 | 0.00 | 0.00 | 0.00 | 56 | |
| 20260505161532 | 66 | 203 | 6.1 | 9.6 | 0.00 | 0.00 | 0.00 | 54 | |
| 20260505161029 | 65 | 242 | 4.3 | 9.6 | 0.00 | 0.00 | 0.00 | 55 | |
| 20260505160527 | 65 | 195 | 1.7 | 13.0 | 0.00 | 0.00 | 0.00 | 55 | |
| 20260505153003 | 60 | 128 | 0.9 | 4.3 | 0.00 | 0.00 | 0.00 | 61 | |
| 20260505152500 | 60 | 86 | 0.9 | 4.3 | 0.00 | 0.00 | 0.00 | 61 | |
| 20260505151955 | 65 | 101 | 2.6 | 3.5 | 0.00 | 0.00 | 0.00 | 55 | |
| 20260505151451 | 64 | 229 | 2.6 | 5.2 | 0.00 | 0.00 | 0.00 | 55 | |
| 20260505150949 | 64 | 235 | 7.8 | 9.6 | 0.00 | 0.00 | 0.00 | 55 | |
| 20260505150445 | 63 | 205 | 2.6 | 11.3 | 0.00 | 0.00 | 0.00 | 56 | |
| 20260505140415 | 59 | 202 | 4.3 | 7.8 | 0.00 | 0.00 | 0.00 | 58 | |
| 20260505124829 | 54 | 89 | 1.7 | 5.2 | 0.00 | 0.00 | 0.00 | 65 | |
| 20260505124326 | 57 | 126 | 2.6 | 5.2 | 0.00 | 0.00 | 0.00 | 60 | |
| 20260505123822 | 58 | 226 | 5.2 | 5.2 | 0.00 | 0.00 | 0.00 | 59 | |
| 20260505123318 | 58 | 250 | 4.3 | 5.2 | 0.00 | 0.00 | 0.00 | 59 | |
| 20260505122815 | 59 | 186 | 2.6 | 5.2 | 0.00 | 0.00 | 0.00 | 58 | |
| 20260505122312 | 59 | 250 | 4.3 | 7.8 | 0.00 | 0.00 | 0.00 | 58 | |
| 20260505121808 | 59 | 228 | 2.6 | 7.0 | 0.00 | 0.00 | 0.00 | 57 | |
| 20260505121306 | 59 | 246 | 4.3 | 8.7 | 0.00 | 0.00 | 0.00 | 57 | |
| 20260505120802 | 59 | 213 | 2.6 | 9.6 | 0.00 | 0.00 | 0.00 | 57 | |
| 20260505120258 | 59 | 234 | 5.2 | 5.2 | 0.00 | 0.00 | 0.00 | 57 | |
| 20260505115756 | 59 | 210 | 2.6 | 6.1 | 0.00 | 0.00 | 0.00 | 57 | |
| 20260505115254 | 58 | 259 | 1.7 | 4.3 | 0.00 | 0.00 | 0.00 | 57 | |
| 20260505114751 | 58 | 224 | 1.7 | 5.2 | 0.00 | 0.00 | 0.00 | 57 | |
| 20260505114247 | 58 | 230 | 4.3 | 4.3 | 0.00 | 0.00 | 0.00 | 57 | |
| 20260505113744 | 58 | 301 | 1.7 | 3.5 | 0.00 | 0.00 | 0.00 | 57 | |
| 20260505113241 | 57 | 227 | 3.5 | 6.1 | 0.00 | 0.00 | 0.00 | 59 | |
| 20260505112737 | 57 | 106 | 1.7 | 3.5 | 0.00 | 0.00 | 0.00 | 58 | |
| 20260505112235 | 55 | 107 | 2.6 | 4.3 | 0.00 | 0.00 | 0.00 | 62 | |
| 20260505111735 | 55 | 108 | 1.7 | 2.6 | 0.00 | 0.00 | 0.00 | 60 | |
| 20260505111231 | 56 | 70 | 1.7 | 3.5 | 0.00 | 0.00 | 0.00 | 59 | |
| 20260505110727 | 59 | 88 | 2.6 | 3.5 | 0.00 | 0.00 | 0.00 | 55 | |
| 20260505110225 | 60 | 159 | 0.9 | 4.3 | 0.00 | 0.00 | 0.00 | 52 | |
| 20260505102200 | 55 | 106 | 1.7 | 2.6 | 0.00 | 0.00 | 0.00 | 61 | |
| 20260505101659 | 55 | 215 | 1.7 | 4.3 | 0.00 | 0.00 | 0.00 | 63 | |
| 20260505101154 | 54 | 115 | 1.7 | 3.5 | 0.00 | 0.00 | 0.00 | 64 | |
| 20260505100650 | 53 | 78 | 2.6 | 2.6 | 0.00 | 0.00 | 0.00 | 66 | |
| 20260505100148 | 53 | 63 | 2.6 | 2.6 | 0.00 | 0.00 | 0.00 | 66 | |
| 20260505095643 | 54 | 75 | 0.9 | 3.5 | 0.00 | 0.00 | 0.00 | 64 | |
| 20260505095141 | 54 | 130 | 1.7 | 2.6 | 0.00 | 0.00 | 0.00 | 63 | |
| 20260505094637 | 54 | 35 | 1.7 | 1.7 | 0.00 | 0.00 | 0.00 | 64 | |
| 20260505094133 | 54 | 129 | 0.0 | 1.7 | 0.00 | 0.00 | 0.00 | 63 | |
| 20260505093630 | 55 | 205 | 1.7 | 1.7 | 0.00 | 0.00 | 0.00 | 62 | |
| 20260505093127 | 54 | 269 | 0.0 | 4.3 | 0.00 | 0.00 | 0.00 | 63 | |
| 20260505092624 | 55 | 141 | 0.0 | 2.6 | 0.00 | 0.00 | 0.00 | 62 | |
| 20260505092123 | 55 | 110 | 1.7 | 2.6 | 0.00 | 0.00 | 0.00 | 61 | |
| 20260505091619 | 57 | 102 | 1.7 | 3.5 | 0.00 | 0.00 | 0.00 | 57 | |
| 20260505091118 | 58 | 63 | 3.5 | 3.5 | 0.00 | 0.00 | 0.00 | 55 | |
| 20260505090615 | 59 | 122 | 0.9 | 4.3 | 0.00 | 0.00 | 0.00 | 54 | |
| 20260505090113 | 58 | 249 | 7.8 | 8.7 | 0.00 | 0.00 | 0.00 | 56 | |
| 20260505085610 | 57 | 166 | 0.0 | 5.2 | 0.00 | 0.00 | 0.00 | 58 | |
| 20260505085109 | 55 | 33 | 5.2 | 5.2 | 0.00 | 0.00 | 0.00 | 61 | |
| 20260505084606 | 55 | 88 | 2.6 | 3.5 | 0.00 | 0.00 | 0.00 | 61 | |
| 20260505084104 | 54 | 310 | 2.6 | 2.6 | 0.00 | 0.00 | 0.00 | 65 | |
| 20260505083601 | 53 | 83 | 1.7 | 2.6 | 0.00 | 0.00 | 0.00 | 65 | |
| 20260505083057 | 53 | 134 | 0.9 | 2.6 | 0.00 | 0.00 | 0.00 | 65 | |
| 20260505082553 | 53 | 162 | 0.9 | 0.9 | 0.00 | 0.00 | 0.00 | 66 | |
| 20260505082050 | 54 | 89 | 0.0 | 2.6 | 0.00 | 0.00 | 0.00 | 65 | |
| 20260505081547 | 54 | 127 | 1.7 | 2.6 | 0.00 | 0.00 | 0.00 | 66 | |
| 20260505081044 | 54 | 162 | 0.9 | 1.7 | 0.00 | 0.00 | 0.00 | 66 | |
| 20260505080540 | 54 | 160 | 0.0 | 0.9 | 0.00 | 0.00 | 0.00 | 66 | |
| 20260505080037 | 54 | 6 | 0.0 | 0.9 | 0.00 | 0.00 | 0.00 | 66 | |
| 20260505075533 | 54 | 89 | 1.7 | 1.7 | 0.00 | 0.00 | 0.00 | 66 | |
| 20260505075030 | 54 | 139 | 0.9 | 0.9 | 0.00 | 0.00 | 0.00 | 67 | |
| 20260505074527 | 54 | 129 | 0.0 | 0.9 | 0.00 | 0.00 | 0.00 | 66 | |
| 20260505074024 | 54 | 106 | 0.0 | 1.7 | 0.00 | 0.00 | 0.00 | 65 | |
| 20260505073521 | 55 | 69 | 0.0 | 0.0 | 0.00 | 0.00 | 0.00 | 64 | |
| 20260505073020 | 55 | 35 | 0.0 | 1.7 | 0.00 | 0.00 | 0.00 | 64 | |
| 20260505072515 | 55 | 48 | 1.7 | 2.6 | 0.00 | 0.00 | 0.00 | 63 | |
| 20260505072011 | 55 | 106 | 1.7 | 1.7 | 0.00 | 0.00 | 0.00 | 63 | |
| 20260505071507 | 56 | 132 | 0.9 | 1.7 | 0.00 | 0.00 | 0.00 | 61 | |
| 20260505071005 | 55 | 154 | 1.7 | 1.7 | 0.00 | 0.00 | 0.00 | 65 | |
| 20260505070502 | 55 | 173 | 0.0 | 0.9 | 0.00 | 0.00 | 0.00 | 65 | |
| 20260505065957 | 55 | 47 | 0.0 | 1.7 | 0.00 | 0.00 | 0.00 | 64 | |
| 20260505065454 | 55 | 196 | 0.0 | 1.7 | 0.00 | 0.00 | 0.00 | 64 | |
| 20260505064951 | 55 | 222 | 0.0 | 1.7 | 0.00 | 0.00 | 0.00 | 64 | |
| 20260505064448 | 55 | 145 | 0.0 | 0.0 | 0.00 | 0.00 | 0.00 | 62 | |
| 20260505063946 | 56 | 47 | 1.7 | 1.7 | 0.00 | 0.00 | 0.00 | 62 | |
| 20260505063442 | 56 | 72 | 1.7 | 2.6 | 0.00 | 0.00 | 0.00 | 60 | |
| 20260505062939 | 57 | 165 | 0.9 | 1.7 | 0.00 | 0.00 | 0.00 | 60 | |
| 20260505062436 | 57 | 94 | 0.9 | 1.7 | 0.00 | 0.00 | 0.00 | 59 | |
| 20260505061933 | 57 | 78 | 1.7 | 1.7 | 0.00 | 0.00 | 0.00 | 58 | |
| 20260505061431 | 57 | 129 | 0.0 | 1.7 | 0.00 | 0.00 | 0.00 | 57 | |
| 20260505060928 | 57 | 25 | 1.7 | 1.7 | 0.00 | 0.00 | 0.00 | 59 | |
| 20260505060425 | 58 | 180 | 0.9 | 0.9 | 0.00 | 0.00 | 0.00 | 58 | |
| 20260505055921 | 59 | 143 | 0.0 | 1.7 | 0.00 | 0.00 | 0.00 | 56 | |
| 20260505055418 | 60 | 129 | 1.7 | 1.7 | 0.00 | 0.00 | 0.00 | 54 | |
| 20260505054914 | 60 | 119 | 0.9 | 1.7 | 0.00 | 0.00 | 0.00 | 52 | |
| 20260505054412 | 61 | 129 | 1.7 | 1.7 | 0.00 | 0.00 | 0.00 | 51 | |
| 20260505053910 | 62 | 64 | 4.3 | 4.3 | 0.00 | 0.00 | 0.00 | 50 | |
| 20260505053407 | 63 | 92 | 2.6 | 2.6 | 0.00 | 0.00 | 0.00 | 48 | |
| 20260505052903 | 64 | 32 | 1.7 | 1.7 | 0.00 | 0.00 | 0.00 | 45 | |
| 20260505052400 | 65 | 127 | 0.0 | 4.3 | 0.00 | 0.00 | 0.00 | 44 | |
| 20260505051857 | 65 | 259 | 1.7 | 2.6 | 0.00 | 0.00 | 0.00 | 44 | |
| 20260505051354 | 65 | 89 | 0.0 | 3.5 | 0.00 | 0.00 | 0.00 | 44 | |
| 20260505050853 | 66 | 157 | 1.7 | 2.6 | 0.00 | 0.00 | 0.00 | 43 | |
| 20260505050351 | 66 | 349 | 1.7 | 7.8 | 0.00 | 0.00 | 0.00 | 42 | |
| 20260505041318 | 67 | 220 | 2.6 | 7.8 | 0.00 | 0.00 | 0.00 | 41 | |
| 20260505040815 | 67 | 230 | 6.1 | 10.4 | 0.00 | 0.00 | 0.00 | 40 | |
| 20260505040313 | 67 | 245 | 4.3 | 7.8 | 0.00 | 0.00 | 0.00 | 40 | |
| 20260505035809 | 66 | 215 | 0.0 | 7.0 | 0.00 | 0.00 | 0.00 | 41 | |
| 20260505035305 | 67 | 334 | 3.5 | 7.0 | 0.00 | 0.00 | 0.00 | 40 | |
| 20260505034803 | 67 | 234 | 2.6 | 6.1 | 0.00 | 0.00 | 0.00 | 40 | |
| 20260505034259 | 67 | 203 | 7.0 | 7.8 | 0.00 | 0.00 | 0.00 | 40 | |
| 20260505033756 | 67 | 230 | 7.8 | 10.4 | 0.00 | 0.00 | 0.00 | 39 | |
| 20260505033253 | 67 | 241 | 3.5 | 4.3 | 0.00 | 0.00 | 0.00 | 39 | |
| 20260505032751 | 67 | 184 | 1.7 | 3.5 | 0.00 | 0.00 | 0.00 | 40 | |
| 20260505032247 | 67 | 316 | 3.5 | 3.5 | 0.00 | 0.00 | 0.00 | 39 | |
| 20260505031744 | 68 | 322 | 0.0 | 3.5 | 0.00 | 0.00 | 0.00 | 39 | |
| 20260505031241 | 68 | 288 | 1.7 | 4.3 | 0.00 | 0.00 | 0.00 | 39 | |
| 20260505030738 | 68 | 280 | 2.6 | 5.2 | 0.00 | 0.00 | 0.00 | 38 | |
| 20260505030234 | 69 | 257 | 3.5 | 9.6 | 0.00 | 0.00 | 0.00 | 37 | |
| 20260505025730 | 69 | 234 | 7.0 | 11.3 | 0.00 | 0.00 | 0.00 | 36 | |
| 20260505025228 | 69 | 234 | 7.8 | 8.7 | 0.00 | 0.00 | 0.00 | 36 | |
| 20260505024726 | 69 | 223 | 7.0 | 11.3 | 0.00 | 0.00 | 0.00 | 36 | |
| 20260505024223 | 70 | 239 | 1.7 | 5.2 | 0.00 | 0.00 | 0.00 | 35 | |
| 20260505023720 | 70 | 243 | 12.2 | 13.0 | 0.00 | 0.00 | 0.00 | 34 | |
| 20260505023217 | 70 | 236 | 7.0 | 11.3 | 0.00 | 0.00 | 0.00 | 34 | |
| 20260505022715 | 71 | 236 | 3.5 | 10.4 | 0.00 | 0.00 | 0.00 | 34 | |
| 20260505022211 | 71 | 245 | 8.7 | 11.3 | 0.00 | 0.00 | 0.00 | 33 | |
| 20260505021708 | 71 | 265 | 5.2 | 7.8 | 0.00 | 0.00 | 0.00 | 32 | |
| 20260505021205 | 71 | 247 | 9.6 | 13.0 | 0.00 | 0.00 | 0.00 | 32 | |
| 20260505020701 | 71 | 249 | 5.2 | 11.3 | 0.00 | 0.00 | 0.00 | 32 | |
| 20260505020157 | 71 | 252 | 6.1 | 12.2 | 0.00 | 0.00 | 0.00 | 30 | |
| 20260505015654 | 72 | 334 | 1.7 | 10.4 | 0.00 | 0.00 | 0.00 | 31 | |
| 20260505015151 | 73 | 265 | 4.3 | 9.6 | 0.00 | 0.00 | 0.00 | 30 | |
| 20260505014648 | 74 | 319 | 2.6 | 11.3 | 0.00 | 0.00 | 0.00 | 30 | |
| 20260505014145 | 74 | 249 | 2.6 | 9.6 | 0.00 | 0.00 | 0.00 | 30 | |
| 20260505013642 | 74 | 266 | 2.6 | 13.9 | 0.00 | 0.00 | 0.00 | 30 | |
| 20260505013139 | 75 | 238 | 5.2 | 7.8 | 0.00 | 0.00 | 0.00 | 30 | |
| 20260505012637 | 75 | 287 | 2.6 | 9.6 | 0.00 | 0.00 | 0.00 | 29 | |
| 20260505012134 | 75 | 295 | 2.6 | 10.4 | 0.00 | 0.00 | 0.00 | 29 | |
| 20260505011630 | 75 | 246 | 6.1 | 12.2 | 0.00 | 0.00 | 0.00 | 29 | |
| 20260505011128 | 75 | 247 | 4.3 | 17.4 | 0.00 | 0.00 | 0.00 | 28 | |
| 20260505010627 | 76 | 264 | 4.3 | 10.4 | 0.00 | 0.00 | 0.00 | 28 | |
| 20260505010125 | 76 | 303 | 7.8 | 11.3 | 0.00 | 0.00 | 0.00 | 26 | |
| 20260505005620 | 77 | 230 | 2.6 | 7.8 | 0.00 | 0.00 | 0.00 | 28 | |
| 20260505005118 | 76 | 241 | 6.1 | 10.4 | 0.00 | 0.00 | 0.00 | 28 | |
| 20260505004615 | 76 | 250 | 5.2 | 15.6 | 0.00 | 0.00 | 0.00 | 27 | |
| 20260505004112 | 76 | 298 | 12.2 | 13.9 | 0.00 | 0.00 | 0.00 | 27 | |
| 20260505003609 | 77 | 294 | 6.1 | 9.6 | 0.00 | 0.00 | 0.00 | 27 | |
| 20260505003106 | 77 | 243 | 5.2 | 11.3 | 0.00 | 0.00 | 0.00 | 28 | |
| 20260505002602 | 76 | 331 | 4.3 | 11.3 | 0.00 | 0.00 | 0.00 | 29 | |
| 20260505002101 | 77 | 316 | 2.6 | 11.3 | 0.00 | 0.00 | 0.00 | 29 | |
| 20260505001557 | 77 | 324 | 1.7 | 11.3 | 0.00 | 0.00 | 0.00 | 29 | |
| 20260505001055 | 78 | 251 | 8.7 | 10.4 | 0.00 | 0.00 | 0.00 | 29 | |
| 20260505000552 | 77 | 246 | 7.8 | 13.0 | 0.00 | 0.00 | 0.00 | 30 | |
| 20260505000049 | 77 | 235 | 7.0 | 18.2 | 0.00 | 0.00 | 0.00 | 30 | |
| 20260504235546 | 76 | 295 | 4.3 | 16.5 | 0.00 | 0.00 | 0.00 | 29 | |
| 20260504235043 | 78 | 315 | 5.2 | 11.3 | 0.00 | 0.00 | 0.00 | 29 | |
| 20260504234540 | 77 | 293 | 8.7 | 12.2 | 0.00 | 0.00 | 0.00 | 30 | |
| 20260504234037 | 78 | 296 | 2.6 | 10.4 | 0.00 | 0.00 | 0.00 | 29 | |
| 20260504233532 | 76 | 285 | 6.1 | 13.9 | 0.00 | 0.00 | 0.00 | 31 | |
| 20260504233029 | 78 | 286 | 4.3 | 12.2 | 0.00 | 0.00 | 0.00 | 30 | |
| 20260504232526 | 77 | 297 | 3.5 | 7.8 | 0.00 | 0.00 | 0.00 | 30 | |
| 20260504232024 | 77 | 288 | 6.1 | 13.0 | 0.00 | 0.00 | 0.00 | 31 | |
| 20260504231520 | 77 | 235 | 5.2 | 18.2 | 0.00 | 0.00 | 0.00 | 30 | |
| 20260504231016 | 77 | 254 | 3.5 | 10.4 | 0.00 | 0.00 | 0.00 | 30 | |
| 20260504230513 | 77 | 240 | 7.8 | 13.0 | 0.00 | 0.00 | 0.00 | 29 | |
| 20260504230012 | 78 | 281 | 9.6 | 11.3 | 0.00 | 0.00 | 0.00 | 29 | |
| 20260504225508 | 77 | 276 | 6.1 | 12.2 | 0.00 | 0.00 | 0.00 | 29 | |
| 20260504225005 | 77 | 224 | 7.0 | 19.1 | 0.00 | 0.00 | 0.00 | 28 | |
| 20260504224502 | 77 | 250 | 7.0 | 13.0 | 0.00 | 0.00 | 0.00 | 28 | |
| 20260504223959 | 77 | 251 | 14.8 | 22.6 | 0.00 | 0.00 | 0.00 | 27 | |
| 20260504223455 | 77 | 242 | 13.0 | 14.8 | 0.00 | 0.00 | 0.00 | 26 | |
| 20260504222951 | 76 | 294 | 7.0 | 14.8 | 0.00 | 0.00 | 0.00 | 26 | |
| 20260504222449 | 77 | 293 | 7.8 | 17.4 | 0.00 | 0.00 | 0.00 | 26 | |
| 20260504221946 | 78 | 238 | 12.2 | 16.5 | 0.00 | 0.00 | 0.00 | 26 | |
| 20260504221443 | 77 | 299 | 11.3 | 16.5 | 0.00 | 0.00 | 0.00 | 25 | |
| 20260504220940 | 78 | 316 | 8.7 | 11.3 | 0.00 | 0.00 | 0.00 | 23 | |
| 20260504220436 | 76 | 12 | 5.2 | 18.2 | 0.00 | 0.00 | 0.00 | 24 | |
| 20260504215934 | 76 | 284 | 9.6 | 19.1 | 0.00 | 0.00 | 0.00 | 23 | |
| 20260504215431 | 76 | 309 | 7.0 | 21.7 | 0.00 | 0.00 | 0.00 | 22 | |
| 20260504214927 | 77 | 320 | 12.2 | 18.2 | 0.00 | 0.00 | 0.00 | 24 | |
| 20260504214423 | 77 | 349 | 7.8 | 15.6 | 0.00 | 0.00 | 0.00 | 25 | |
| 20260504213920 | 77 | 306 | 10.4 | 22.6 | 0.00 | 0.00 | 0.00 | 24 | |
| 20260504213416 | 78 | 287 | 5.2 | 15.6 | 0.00 | 0.00 | 0.00 | 24 | |
| 20260504212914 | 77 | 323 | 8.7 | 15.6 | 0.00 | 0.00 | 0.00 | 25 | |
| 20260504212409 | 78 | 315 | 14.8 | 17.4 | 0.00 | 0.00 | 0.00 | 27 | |
| 20260504211908 | 78 | 318 | 7.8 | 13.9 | 0.00 | 0.00 | 0.00 | 28 | |
| 20260504211403 | 77 | 266 | 13.9 | 17.4 | 0.00 | 0.00 | 0.00 | 27 | |
| 20260504210900 | 78 | 9 | 13.9 | 19.1 | 0.00 | 0.00 | 0.00 | 26 | |
| 20260504210357 | 77 | 317 | 8.7 | 17.4 | 0.00 | 0.00 | 0.00 | 27 | |
| 20260504205854 | 78 | 8 | 8.7 | 14.8 | 0.00 | 0.00 | 0.00 | 25 | |
| 20260504205352 | 77 | 15 | 9.6 | 17.4 | 0.00 | 0.00 | 0.00 | 29 | |
| 20260504204850 | 78 | 305 | 8.7 | 13.0 | 0.00 | 0.00 | 0.00 | 29 | |
| 20260504204349 | 78 | 313 | 5.2 | 11.3 | 0.00 | 0.00 | 0.00 | 27 | |
| 20260504203848 | 77 | 307 | 6.1 | 15.6 | 0.00 | 0.00 | 0.00 | 27 | |
| 20260504203344 | 78 | 317 | 13.0 | 19.1 | 0.00 | 0.00 | 0.00 | 27 | |
| 20260504202840 | 78 | 326 | 8.7 | 13.9 | 0.00 | 0.00 | 0.00 | 28 | |
| 20260504202337 | 78 | 329 | 7.8 | 20.0 | 0.00 | 0.00 | 0.00 | 27 | |
| 20260504201833 | 78 | 295 | 11.3 | 15.6 | 0.00 | 0.00 | 0.00 | 27 | |
| 20260504201331 | 79 | 335 | 2.6 | 10.4 | 0.00 | 0.00 | 0.00 | 28 | |
| 20260504200828 | 77 | 239 | 5.2 | 11.3 | 0.00 | 0.00 | 0.00 | 29 | |
| 20260504200325 | 78 | 257 | 5.2 | 15.6 | 0.00 | 0.00 | 0.00 | 29 | |
| 20260504195821 | 78 | 267 | 4.3 | 9.6 | 0.00 | 0.00 | 0.00 | 31 | |
| 20260504195317 | 78 | 315 | 6.1 | 11.3 | 0.00 | 0.00 | 0.00 | 30 |